createdAt,value
2022-11-05T00:00:47.392Z,8.60
2022-11-05T00:03:33.007Z,7.47
2022-11-05T00:06:18.828Z,8.57
2022-11-05T00:09:04.410Z,8.70
2022-11-05T00:12:00.641Z,8.30
2022-11-05T00:14:46.050Z,8.10
2022-11-05T00:17:12.960Z,8.20
2022-11-05T00:19:39.818Z,7.93
2022-11-05T00:22:25.022Z,6.87
2022-11-05T00:25:10.640Z,7.20
2022-11-05T00:27:37.529Z,6.80
2022-11-05T00:30:04.878Z,6.37
2022-11-05T00:32:32.810Z,7.00
2022-11-05T00:35:00.024Z,6.90
2022-11-05T00:37:30.238Z,7.10
2022-11-05T00:39:57.090Z,5.87
2022-11-05T00:42:42.635Z,5.80
2022-11-05T00:45:10.247Z,5.77
2022-11-05T00:47:56.857Z,6.00
2022-11-05T00:50:24.692Z,5.83
2022-11-05T00:52:56.844Z,5.00
2022-11-05T00:55:42.789Z,6.33
2022-11-05T00:58:16.989Z,5.00
2022-11-05T01:00:49.130Z,5.87
2022-11-05T01:03:19.446Z,5.33
2022-11-05T01:05:50.664Z,5.23
2022-11-05T01:08:20.430Z,5.93
2022-11-05T01:10:54.326Z,5.23
2022-11-05T01:13:25.406Z,6.13
2022-11-05T01:15:53.127Z,6.07
2022-11-05T01:18:21.529Z,5.47
2022-11-05T01:20:48.804Z,7.10
2022-11-05T01:23:16.802Z,5.87
2022-11-05T01:25:44.122Z,5.00
2022-11-05T01:28:11.364Z,6.10
2022-11-05T01:30:38.697Z,6.70
2022-11-05T01:33:05.654Z,6.30
2022-11-05T01:35:32.589Z,5.90
2022-11-05T01:37:59.524Z,6.00
2022-11-05T01:40:26.789Z,6.37
2022-11-05T01:42:53.698Z,6.63
2022-11-05T01:45:27.076Z,6.70
2022-11-05T01:48:19.417Z,6.80
2022-11-05T01:50:54.698Z,6.30
2022-11-05T01:53:38.138Z,6.50
2022-11-05T01:56:27.048Z,7.13
2022-11-05T01:59:02.322Z,6.43
2022-11-05T02:01:29.655Z,7.17
2022-11-05T02:04:05.694Z,5.90
2022-11-05T02:06:37.718Z,7.07
2022-11-05T02:09:22.327Z,6.53
2022-11-05T02:11:51.539Z,8.07
2022-11-05T02:14:18.881Z,6.90
2022-11-05T02:16:51.062Z,6.40
2022-11-05T02:19:36.291Z,6.57
2022-11-05T02:22:59.475Z,8.10
2022-11-05T02:25:41.114Z,7.43
2022-11-05T02:28:22.211Z,8.47
2022-11-05T02:30:56.582Z,7.10
2022-11-05T02:34:04.894Z,7.97
2022-11-05T02:37:10.122Z,7.17
2022-11-05T02:40:01.518Z,7.43
2022-11-05T02:42:53.015Z,8.13
2022-11-05T02:45:26.051Z,8.20
2022-11-05T02:48:43.215Z,7.43
2022-11-05T02:51:36.397Z,8.00
2022-11-05T02:54:28.123Z,8.50
2022-11-05T02:56:57.188Z,6.90
2022-11-05T02:59:24.176Z,6.93
2022-11-05T03:01:52.577Z,7.83
2022-11-05T03:04:22.213Z,7.07
2022-11-05T03:07:08.206Z,7.50
2022-11-05T03:10:28.165Z,6.97
2022-11-05T03:13:06.627Z,7.07
2022-11-05T03:15:57.678Z,7.10
2022-11-05T03:18:47.766Z,7.80
2022-11-05T03:21:23.251Z,7.37
2022-11-05T03:23:56.791Z,6.73
2022-11-05T03:26:39.257Z,6.70
2022-11-05T03:29:13.564Z,6.20
2022-11-05T03:31:41.761Z,7.07
2022-11-05T03:34:10.694Z,5.97
2022-11-05T03:36:45.199Z,6.57
2022-11-05T03:39:20.456Z,7.27
2022-11-05T03:41:51.294Z,5.60
2022-11-05T03:44:27.686Z,6.20
2022-11-05T03:47:04.042Z,6.90
2022-11-05T03:49:39.210Z,6.13
2022-11-05T03:52:20.180Z,5.97
2022-11-05T03:54:47.546Z,6.23
2022-11-05T03:57:44.177Z,6.57
2022-11-05T04:00:12.081Z,6.00
2022-11-05T04:02:39.153Z,6.70
2022-11-05T04:05:06.576Z,6.13
2022-11-05T04:07:51.767Z,6.63
2022-11-05T04:10:37.280Z,6.53
2022-11-05T04:13:22.597Z,6.60
2022-11-05T04:16:08.085Z,6.33
2022-11-05T04:18:36.544Z,7.70
2022-11-05T04:21:23.664Z,6.07
2022-11-05T04:24:10.123Z,5.90
2022-11-05T04:26:40.598Z,6.57
2022-11-05T04:29:26.321Z,5.00
2022-11-05T04:31:53.938Z,6.03
2022-11-05T04:34:24.134Z,6.10
2022-11-05T04:36:53.086Z,5.03
2022-11-05T04:39:21.609Z,5.70
2022-11-05T04:41:48.819Z,5.40
2022-11-05T04:44:16.829Z,5.43
2022-11-05T04:46:43.961Z,5.43
2022-11-05T04:49:10.905Z,5.17
2022-11-05T04:51:37.808Z,5.90
2022-11-05T04:54:04.769Z,7.30
2022-11-05T04:56:31.815Z,5.10
2022-11-05T04:58:58.718Z,6.30
2022-11-05T05:01:25.857Z,5.70
2022-11-05T05:03:54.069Z,5.80
2022-11-05T05:06:21.645Z,5.23
2022-11-05T05:08:50.611Z,5.33
2022-11-05T05:11:21.014Z,6.00
2022-11-05T05:13:49.142Z,5.23
2022-11-05T05:16:26.927Z,5.43
2022-11-05T05:18:54.756Z,5.70
2022-11-05T05:21:42.175Z,6.30
2022-11-05T05:24:15.888Z,5.10
2022-11-05T05:26:46.442Z,6.47
2022-11-05T05:29:14.204Z,5.37
2022-11-05T05:31:41.973Z,6.30
2022-11-05T05:34:12.398Z,7.50
2022-11-05T05:36:40.588Z,5.80
2022-11-05T05:39:10.726Z,6.33
2022-11-05T05:41:37.592Z,6.03
2022-11-05T05:44:06.427Z,5.93
2022-11-05T05:46:33.459Z,6.27
2022-11-05T05:49:00.387Z,5.77
2022-11-05T05:51:27.290Z,5.63
2022-11-05T05:53:55.023Z,5.10
2022-11-05T05:56:22.107Z,4.60
2022-11-05T05:58:49.046Z,5.47
2022-11-05T06:01:19.721Z,5.30
2022-11-05T06:03:48.540Z,5.03
2022-11-05T06:06:19.923Z,5.10
2022-11-05T06:08:47.684Z,4.77
2022-11-05T06:11:14.734Z,5.40
2022-11-05T06:13:41.570Z,4.97
2022-11-05T06:16:10.069Z,4.90
2022-11-05T06:18:37.692Z,4.83
2022-11-05T06:21:14.492Z,5.10
2022-11-05T06:23:44.115Z,5.10
2022-11-05T06:26:14.490Z,4.70
2022-11-05T06:28:42.151Z,4.83
2022-11-05T06:31:13.546Z,4.43
2022-11-05T06:33:41.106Z,5.30
2022-11-05T06:36:15.833Z,5.63
2022-11-05T06:38:42.942Z,5.10
2022-11-05T06:41:10.755Z,5.00
2022-11-05T06:43:38.300Z,5.07
2022-11-05T06:46:05.545Z,24.87
2022-11-05T06:48:33.035Z,12.13
2022-11-05T06:50:59.894Z,15.30
2022-11-05T06:53:27.039Z,14.63
2022-11-05T06:55:53.906Z,5.73
2022-11-05T06:58:21.145Z,7.90
2022-11-05T07:00:48.155Z,5.20
2022-11-05T07:03:15.510Z,6.23
2022-11-05T07:05:48.518Z,5.70
2022-11-05T07:08:16.265Z,4.13
2022-11-05T07:10:43.118Z,6.03
2022-11-05T07:13:10.426Z,4.90
2022-11-05T07:15:37.847Z,4.70
2022-11-05T07:18:07.501Z,5.23
2022-11-05T07:20:35.318Z,5.27
2022-11-05T07:23:10.482Z,5.17
2022-11-05T07:25:38.401Z,5.57
2022-11-05T07:28:05.934Z,5.00
2022-11-05T07:30:33.837Z,5.03
2022-11-05T07:33:01.023Z,5.87
2022-11-05T07:35:28.147Z,5.30
2022-11-05T07:37:55.991Z,5.43
2022-11-05T07:40:25.436Z,5.13
2022-11-05T07:42:55.435Z,6.10
2022-11-05T07:45:22.932Z,5.20
2022-11-05T07:47:52.869Z,5.50
2022-11-05T07:50:22.920Z,5.17
2022-11-05T07:52:50.535Z,5.17
2022-11-05T07:55:19.253Z,4.97
2022-11-05T07:57:49.237Z,4.70
2022-11-05T08:00:23.249Z,4.97
2022-11-05T08:03:08.145Z,6.20
2022-11-05T08:05:39.007Z,5.00
2022-11-05T08:08:08.637Z,4.27
2022-11-05T08:10:37.294Z,3.93
2022-11-05T08:13:05.874Z,4.60
2022-11-05T08:15:34.246Z,4.93
2022-11-05T08:18:07.681Z,4.50
2022-11-05T08:20:35.528Z,4.90
2022-11-05T08:23:02.637Z,4.57
2022-11-05T08:25:29.858Z,5.50
2022-11-05T08:27:59.518Z,5.77
2022-11-05T08:30:27.266Z,5.23
2022-11-05T08:33:05.296Z,5.27
2022-11-05T08:35:36.544Z,6.57
2022-11-05T08:38:06.665Z,12.40
2022-11-05T08:40:36.117Z,5.00
2022-11-05T08:43:05.358Z,5.47
2022-11-05T08:45:32.814Z,4.50
2022-11-05T08:48:09.825Z,4.40
2022-11-05T08:50:37.513Z,3.87
2022-11-05T08:53:05.669Z,4.20
2022-11-05T08:55:32.654Z,3.53
2022-11-05T08:58:02.513Z,4.50
2022-11-05T09:00:33.035Z,4.20
2022-11-05T09:03:02.626Z,4.20
2022-11-05T09:05:31.643Z,3.63
2022-11-05T09:08:01.443Z,3.23
2022-11-05T09:10:28.856Z,4.57
2022-11-05T09:12:55.959Z,3.80
2022-11-05T09:15:23.451Z,4.63
2022-11-05T09:17:51.116Z,3.23
2022-11-05T09:20:18.107Z,3.57
2022-11-05T09:22:46.204Z,3.67
2022-11-05T09:25:15.229Z,2.80
2022-11-05T09:27:42.571Z,3.00
2022-11-05T09:30:11.949Z,3.30
2022-11-05T09:32:39.210Z,2.93
2022-11-05T09:35:07.350Z,3.57
2022-11-05T09:37:36.051Z,3.10
2022-11-05T09:40:03.541Z,3.40
2022-11-05T09:42:40.065Z,3.47
2022-11-05T09:45:20.086Z,3.33
2022-11-05T09:47:53.266Z,3.70
2022-11-05T09:50:39.495Z,3.70
2022-11-05T09:53:07.199Z,3.40
2022-11-05T09:55:39.820Z,3.93
2022-11-05T09:58:27.558Z,3.50
2022-11-05T10:00:57.151Z,3.83
2022-11-05T10:03:26.957Z,3.17
2022-11-05T10:06:07.950Z,4.80
2022-11-05T10:08:44.364Z,3.47
2022-11-05T10:11:20.543Z,3.40
2022-11-05T10:13:58.521Z,2.97
2022-11-05T10:16:36.284Z,2.70
2022-11-05T10:19:24.626Z,3.37
2022-11-05T10:22:13.037Z,3.33
2022-11-05T10:24:47.281Z,2.30
2022-11-05T10:27:32.185Z,2.30
2022-11-05T10:29:59.858Z,3.17
2022-11-05T10:32:42.708Z,5.10
2022-11-05T10:35:18.448Z,5.87
2022-11-05T10:37:46.687Z,8.03
2022-11-05T10:40:42.937Z,4.43
2022-11-05T10:43:29.510Z,2.43
2022-11-05T10:46:23.038Z,4.00
2022-11-05T10:49:43.094Z,2.93
2022-11-05T10:52:32.064Z,2.63
2022-11-05T10:55:25.532Z,2.57
2022-11-05T10:57:52.686Z,1.77
2022-11-05T11:00:25.973Z,1.80
2022-11-05T11:03:03.888Z,2.13
2022-11-05T11:05:38.552Z,1.97
2022-11-05T11:08:23.673Z,2.03
2022-11-05T11:10:59.048Z,1.90
2022-11-05T11:13:29.594Z,2.27
2022-11-05T11:16:25.708Z,2.50
2022-11-05T11:18:56.820Z,2.40
2022-11-05T11:21:24.564Z,2.33
2022-11-05T11:24:03.627Z,1.40
2022-11-05T11:26:36.379Z,1.53
2022-11-05T11:29:28.049Z,1.57
2022-11-05T11:31:57.985Z,2.00
2022-11-05T11:34:33.871Z,1.60
2022-11-05T11:37:19.626Z,3.10
2022-11-05T11:39:53.691Z,1.70
2022-11-05T11:42:35.229Z,2.17
2022-11-05T11:45:18.165Z,2.27
2022-11-05T11:47:50.819Z,1.80
2022-11-05T11:50:45.587Z,1.40
2022-11-05T11:53:21.047Z,2.17
2022-11-05T11:56:15.200Z,1.70
2022-11-05T11:58:49.674Z,1.30
2022-11-05T12:01:51.540Z,2.00
2022-11-05T12:04:50.241Z,1.90
2022-11-05T12:07:49.282Z,1.83
2022-11-05T12:10:48.639Z,2.53
2022-11-05T12:13:21.480Z,1.57
2022-11-05T12:16:20.626Z,1.50
2022-11-05T12:19:47.874Z,2.50
2022-11-05T12:22:53.829Z,1.80
2022-11-05T12:25:40.270Z,2.00
2022-11-05T12:28:36.132Z,2.00
2022-11-05T12:31:23.668Z,1.80
2022-11-05T12:34:31.492Z,10.73
2022-11-05T12:37:24.761Z,4.17
2022-11-05T12:40:39.211Z,1.50
2022-11-05T12:43:23.811Z,2.40
2022-11-05T12:47:15.321Z,1.90
2022-11-05T12:49:54.319Z,1.73
2022-11-05T12:52:38.741Z,1.37
2022-11-05T12:55:28.311Z,2.00
2022-11-05T12:58:28.364Z,2.07
2022-11-05T13:01:06.732Z,2.20
2022-11-05T13:03:46.351Z,2.17
2022-11-05T13:06:27.486Z,1.87
2022-11-05T13:09:17.730Z,1.80
2022-11-05T13:11:56.107Z,1.77
2022-11-05T13:14:30.956Z,1.90
2022-11-05T13:17:14.200Z,2.23
2022-11-05T13:19:59.745Z,1.80
2022-11-05T13:22:39.464Z,1.77
2022-11-05T13:25:22.421Z,2.50
2022-11-05T13:27:58.450Z,3.63
2022-11-05T13:30:37.541Z,2.50
2022-11-05T13:33:18.303Z,2.13
2022-11-05T13:36:30.065Z,1.73
2022-11-05T13:39:23.348Z,1.97
2022-11-05T13:42:40.908Z,1.60
2022-11-05T13:45:48.012Z,1.90
2022-11-05T13:48:57.429Z,1.70
2022-11-05T13:51:47.780Z,2.20
2022-11-05T13:55:00.527Z,1.67
2022-11-05T13:58:13.966Z,1.57
2022-11-05T14:01:12.380Z,2.10
2022-11-05T14:03:48.491Z,1.70
2022-11-05T14:06:29.660Z,2.10
2022-11-05T14:09:10.561Z,2.83
2022-11-05T14:11:48.856Z,2.30
2022-11-05T14:14:21.655Z,1.90
2022-11-05T14:17:07.368Z,1.83
2022-11-05T14:20:04.230Z,1.50
2022-11-05T14:22:34.079Z,1.83
2022-11-05T14:25:19.824Z,2.20
2022-11-05T14:27:54.026Z,2.00
2022-11-05T14:30:46.865Z,2.90
2022-11-05T14:33:25.983Z,2.50
2022-11-05T14:36:21.543Z,2.70
2022-11-05T14:38:56.848Z,2.60
2022-11-05T14:41:26.994Z,1.40
2022-11-05T14:44:01.798Z,6.70
2022-11-05T14:46:49.084Z,2.60
2022-11-05T14:49:21.597Z,2.80
2022-11-05T14:51:52.460Z,2.97
2022-11-05T14:54:41.612Z,1.70
2022-11-05T14:57:14.773Z,2.33
2022-11-05T14:59:58.446Z,2.03
2022-11-05T15:02:32.953Z,2.50
2022-11-05T15:05:38.805Z,1.83
2022-11-05T15:08:26.350Z,2.60
2022-11-05T15:11:23.071Z,2.50
2022-11-05T15:14:04.613Z,2.23
2022-11-05T15:16:42.368Z,1.83
2022-11-05T15:19:23.042Z,2.37
2022-11-05T15:21:51.485Z,2.30
2022-11-05T15:24:19.934Z,1.90
2022-11-05T15:26:50.004Z,2.03
2022-11-05T15:29:22.104Z,2.87
2022-11-05T15:31:50.559Z,2.20
2022-11-05T15:34:33.626Z,1.77
2022-11-05T15:37:23.598Z,2.67
2022-11-05T15:39:54.021Z,2.20
2022-11-05T15:42:26.441Z,2.50
2022-11-05T15:44:58.919Z,1.87
2022-11-05T15:47:31.686Z,2.63
2022-11-05T15:50:02.183Z,2.87
2022-11-05T15:52:48.234Z,3.00
2022-11-05T15:55:15.049Z,2.60
2022-11-05T15:57:51.302Z,2.60
2022-11-05T16:00:25.839Z,3.07
2022-11-05T16:02:56.711Z,2.50
2022-11-05T16:05:27.174Z,3.30
2022-11-05T16:07:54.350Z,4.47
2022-11-05T16:10:27.278Z,3.33
2022-11-05T16:12:54.185Z,3.37
2022-11-05T16:15:29.415Z,3.13
2022-11-05T16:17:59.212Z,3.27
2022-11-05T16:20:33.916Z,6.20
2022-11-05T16:23:05.015Z,3.17
2022-11-05T16:25:43.566Z,4.60
2022-11-05T16:28:27.472Z,4.70
2022-11-05T16:31:02.106Z,4.83
2022-11-05T16:33:45.345Z,3.77
2022-11-05T16:36:12.700Z,4.80
2022-11-05T16:38:39.808Z,5.40
2022-11-05T16:41:06.836Z,5.03
2022-11-05T16:43:34.504Z,5.20
2022-11-05T16:46:01.861Z,4.27
2022-11-05T16:48:29.033Z,7.40
2022-11-05T16:50:56.109Z,5.30
2022-11-05T16:53:23.139Z,3.97
2022-11-05T16:55:50.077Z,4.83
2022-11-05T16:58:26.586Z,6.00
2022-11-05T17:01:08.200Z,4.20
2022-11-05T17:03:35.162Z,4.60
2022-11-05T17:06:02.080Z,4.50
2022-11-05T17:08:29.572Z,4.20
2022-11-05T17:10:56.519Z,4.13
2022-11-05T17:13:23.446Z,4.27
2022-11-05T17:15:51.359Z,4.10
2022-11-05T17:18:19.593Z,4.20
2022-11-05T17:20:52.904Z,3.60
2022-11-05T17:23:23.350Z,4.00
2022-11-05T17:25:53.977Z,4.10
2022-11-05T17:28:22.169Z,4.03
2022-11-05T17:30:52.739Z,5.07
2022-11-05T17:33:22.780Z,5.20
2022-11-05T17:35:50.900Z,4.60
2022-11-05T17:38:18.723Z,4.43
2022-11-05T17:40:45.610Z,3.93
2022-11-05T17:43:12.750Z,4.30
2022-11-05T17:45:45.760Z,4.20
2022-11-05T17:48:13.521Z,5.03
2022-11-05T17:50:42.769Z,5.67
2022-11-05T17:53:11.257Z,4.67
2022-11-05T17:55:47.036Z,4.50
2022-11-05T17:58:14.605Z,4.70
2022-11-05T18:00:42.777Z,5.07
2022-11-05T18:03:11.602Z,5.37
2022-11-05T18:05:40.398Z,5.20
2022-11-05T18:08:08.074Z,5.03
2022-11-05T18:10:39.493Z,4.87
2022-11-05T18:13:06.601Z,5.17
2022-11-05T18:15:35.463Z,5.23
2022-11-05T18:18:02.569Z,18.90
2022-11-05T18:20:29.702Z,7.00
2022-11-05T18:22:56.581Z,6.10
2022-11-05T18:25:23.430Z,5.73
2022-11-05T18:27:50.389Z,5.53
2022-11-05T18:30:17.293Z,5.73
2022-11-05T18:32:45.173Z,5.30
2022-11-05T18:35:14.637Z,6.43
2022-11-05T18:37:42.385Z,7.03
2022-11-05T18:40:10.240Z,5.67
2022-11-05T18:42:37.314Z,6.10
2022-11-05T18:45:06.580Z,8.57
2022-11-05T18:47:33.839Z,9.80
2022-11-05T18:50:02.262Z,8.63
2022-11-05T18:52:31.559Z,8.40
2022-11-05T18:54:59.059Z,7.60
2022-11-05T18:57:26.869Z,6.90
2022-11-05T18:59:53.732Z,8.20
2022-11-05T19:02:20.813Z,8.30
2022-11-05T19:05:13.793Z,7.87
2022-11-05T19:07:38.771Z,9.20
2022-11-05T19:10:06.936Z,8.27
2022-11-05T19:12:33.802Z,8.70
2022-11-05T19:15:02.740Z,9.20
2022-11-05T19:17:30.694Z,8.87
2022-11-05T19:19:59.009Z,9.90
2022-11-05T19:22:26.178Z,8.60
2022-11-05T19:24:53.069Z,10.07
2022-11-05T19:27:20.707Z,8.60
2022-11-05T19:29:47.874Z,9.37
2022-11-05T19:32:15.505Z,10.70
2022-11-05T19:34:42.385Z,9.20
2022-11-05T19:37:09.353Z,9.63
2022-11-05T19:39:36.311Z,8.97
2022-11-05T19:42:04.083Z,8.87
2022-11-05T19:44:31.964Z,9.60
2022-11-05T19:46:58.991Z,8.67
2022-11-05T19:49:28.068Z,8.97
2022-11-05T19:51:55.078Z,8.70
2022-11-05T19:54:22.012Z,8.73
2022-11-05T19:56:51.779Z,7.90
2022-11-05T19:59:18.969Z,8.77
2022-11-05T20:01:46.000Z,9.30
2022-11-05T20:04:13.388Z,8.40
2022-11-05T20:06:40.782Z,7.83
2022-11-05T20:09:21.647Z,8.37
2022-11-05T20:11:51.109Z,8.30
2022-11-05T20:14:18.102Z,8.47
2022-11-05T20:16:46.300Z,8.40
2022-11-05T20:19:17.650Z,8.03
2022-11-05T20:21:45.155Z,9.73
2022-11-05T20:24:20.304Z,9.00
2022-11-05T20:26:50.872Z,9.13
2022-11-05T20:29:17.794Z,9.20
2022-11-05T20:31:44.636Z,9.37
2022-11-05T20:34:11.591Z,8.33
2022-11-05T20:36:39.756Z,9.33
2022-11-05T20:39:06.607Z,9.17
2022-11-05T20:41:33.859Z,9.20
2022-11-05T20:44:00.932Z,9.07
2022-11-05T20:46:28.094Z,8.87
2022-11-05T20:48:55.719Z,8.40
2022-11-05T20:51:24.976Z,8.10
2022-11-05T20:54:00.708Z,8.23
2022-11-05T20:56:31.763Z,7.70
2022-11-05T20:58:59.973Z,8.10
2022-11-05T21:01:30.213Z,8.67
2022-11-05T21:03:57.838Z,8.40
2022-11-05T21:06:24.682Z,7.60
2022-11-05T21:08:52.815Z,8.30
2022-11-05T21:11:20.406Z,7.37
2022-11-05T21:13:47.849Z,7.40
2022-11-05T21:16:18.465Z,6.87
2022-11-05T21:18:46.269Z,7.43
2022-11-05T21:21:18.579Z,7.63
2022-11-05T21:23:45.801Z,6.93
2022-11-05T21:26:14.846Z,6.47
2022-11-05T21:28:42.356Z,6.80
2022-11-05T21:31:10.419Z,7.30
2022-11-05T21:33:38.045Z,7.17
2022-11-05T21:36:12.952Z,6.73
2022-11-05T21:38:41.319Z,8.70
2022-11-05T21:41:10.790Z,8.63
2022-11-05T21:43:39.637Z,8.47
2022-11-05T21:46:06.471Z,9.03
2022-11-05T21:48:33.973Z,6.53
2022-11-05T21:51:19.195Z,5.90
2022-11-05T21:54:04.558Z,7.63
2022-11-05T21:56:50.354Z,7.00
2022-11-05T21:59:40.162Z,6.67
2022-11-05T22:02:09.548Z,6.30
2022-11-05T22:04:40.249Z,7.53
2022-11-05T22:07:09.882Z,6.20
2022-11-05T22:09:36.828Z,6.67
2022-11-05T22:12:04.623Z,6.20
2022-11-05T22:14:32.208Z,7.30
2022-11-05T22:16:59.399Z,6.60
2022-11-05T22:19:26.963Z,7.17
2022-11-05T22:21:54.234Z,6.83
2022-11-05T22:24:21.652Z,6.77
2022-11-05T22:26:49.057Z,6.97
2022-11-05T22:29:16.861Z,7.47
2022-11-05T22:31:43.901Z,7.90
2022-11-05T22:34:11.902Z,7.90
2022-11-05T22:36:38.989Z,7.33
2022-11-05T22:39:06.206Z,8.10
2022-11-05T22:41:33.467Z,7.83
2022-11-05T22:44:00.642Z,8.17
2022-11-05T22:46:27.906Z,7.40
2022-11-05T22:48:56.221Z,6.90
2022-11-05T22:51:30.279Z,7.87
2022-11-05T22:53:58.345Z,7.23
2022-11-05T22:56:29.005Z,7.67
2022-11-05T22:58:56.324Z,6.67
2022-11-05T23:01:24.440Z,6.20
2022-11-05T23:03:54.617Z,7.47
2022-11-05T23:06:48.620Z,7.10
2022-11-05T23:09:46.762Z,6.60
2022-11-05T23:12:32.881Z,7.30
2022-11-05T23:15:02.186Z,8.10
2022-11-05T23:17:58.910Z,6.50
2022-11-05T23:20:44.281Z,5.83
2022-11-05T23:23:31.309Z,6.33
2022-11-05T23:25:59.719Z,5.80
2022-11-05T23:28:27.082Z,6.33
2022-11-05T23:31:12.576Z,6.80
2022-11-05T23:33:39.615Z,5.73
2022-11-05T23:36:25.725Z,5.70
2022-11-05T23:38:52.655Z,5.53
2022-11-05T23:41:54.917Z,6.67
2022-11-05T23:44:40.234Z,6.67
2022-11-05T23:47:26.674Z,6.37
2022-11-05T23:49:53.926Z,6.23
2022-11-05T23:52:20.815Z,7.13
2022-11-05T23:54:47.679Z,7.17
2022-11-05T23:57:14.583Z,6.40
2022-11-05T23:59:41.483Z,6.33
